createdAt,value
2018-01-17T00:00:26.412Z,70.85
2018-01-17T00:02:54.282Z,71.35
2018-01-17T00:05:22.003Z,71.35
2018-01-17T00:07:49.847Z,70.96
2018-01-17T00:10:18.063Z,71.92
2018-01-17T00:12:45.833Z,72.05
2018-01-17T00:15:13.661Z,72.58
2018-01-17T00:17:41.555Z,72.80
2018-01-17T00:20:09.228Z,72.10
2018-01-17T00:22:42.150Z,72.68
2018-01-17T00:25:09.803Z,72.23
2018-01-17T00:27:37.693Z,72.77
2018-01-17T00:30:06.692Z,72.31
2018-01-17T00:32:34.323Z,72.35
2018-01-17T00:35:01.931Z,72.45
2018-01-17T00:37:29.795Z,71.85
2018-01-17T00:39:58.099Z,71.79
2018-01-17T00:42:25.880Z,72.13
2018-01-17T00:44:53.656Z,71.47
2018-01-17T00:47:21.291Z,70.98
2018-01-17T00:49:48.942Z,71.46
2018-01-17T00:52:17.001Z,71.62
2018-01-17T00:54:44.682Z,71.38
2018-01-17T00:57:13.346Z,71.33
2018-01-17T00:59:42.368Z,70.04
2018-01-17T01:02:10.420Z,70.04
2018-01-17T01:04:38.457Z,69.99
2018-01-17T01:07:06.704Z,70.63
2018-01-17T01:09:35.030Z,70.26
2018-01-17T01:12:03.669Z,70.05
2018-01-17T01:14:31.696Z,70.09
2018-01-17T01:17:00.885Z,69.63
2018-01-17T01:19:29.553Z,69.62
2018-01-17T01:21:58.637Z,70.26
2018-01-17T01:24:27.886Z,70.04
2018-01-17T01:26:56.462Z,69.57
2018-01-17T01:29:24.919Z,69.08
2018-01-17T01:31:55.708Z,69.26
2018-01-17T01:34:23.593Z,70.24
2018-01-17T01:36:55.630Z,70.29
2018-01-17T01:39:25.608Z,70.06
2018-01-17T01:41:53.714Z,70.50
2018-01-17T01:44:22.033Z,70.30
2018-01-17T01:46:50.111Z,70.86
2018-01-17T01:49:19.894Z,70.96
2018-01-17T01:51:49.112Z,71.60
2018-01-17T01:54:18.985Z,71.85
2018-01-17T01:56:48.491Z,73.84
2018-01-17T01:59:18.011Z,73.54
2018-01-17T02:01:46.033Z,73.12
2018-01-17T02:04:13.921Z,73.47
2018-01-17T02:06:41.697Z,72.11
2018-01-17T02:09:10.815Z,72.26
2018-01-17T02:11:39.447Z,74.46
2018-01-17T02:14:08.366Z,75.04
2018-01-17T02:16:36.822Z,74.31
2018-01-17T02:19:08.584Z,73.98
2018-01-17T02:21:41.050Z,75.51
2018-01-17T02:24:10.893Z,75.22
2018-01-17T02:26:39.847Z,75.33
2018-01-17T02:29:07.815Z,75.58
2018-01-17T02:31:36.375Z,74.93
2018-01-17T02:34:05.602Z,75.62
2018-01-17T02:36:35.301Z,75.90
2018-01-17T02:39:03.116Z,75.08
2018-01-17T02:41:32.720Z,75.35
2018-01-17T02:44:00.885Z,76.28
2018-01-17T02:46:29.057Z,76.00
2018-01-17T02:48:57.038Z,75.64
2018-01-17T02:51:25.420Z,75.08
2018-01-17T02:53:53.234Z,75.27
2018-01-17T02:56:22.154Z,76.24
2018-01-17T02:58:50.357Z,76.20
2018-01-17T03:06:27.601Z,75.59
2018-01-17T03:08:55.508Z,75.74
2018-01-17T03:11:24.036Z,75.26
2018-01-17T03:13:52.277Z,76.41
2018-01-17T03:16:20.984Z,75.17
2018-01-17T03:18:50.912Z,75.07
2018-01-17T03:21:20.925Z,74.35
2018-01-17T03:23:51.946Z,74.31
2018-01-17T03:26:20.484Z,73.76
2018-01-17T03:28:48.994Z,72.93
2018-01-17T03:31:21.626Z,73.89
2018-01-17T03:33:52.211Z,74.27
2018-01-17T03:36:20.119Z,73.78
2018-01-17T03:38:49.545Z,73.51
2018-01-17T03:41:17.865Z,73.75
2018-01-17T03:43:45.784Z,74.51
2018-01-17T03:46:13.588Z,76.34
2018-01-17T03:48:41.379Z,74.73
2018-01-17T03:51:09.178Z,73.60
2018-01-17T03:53:36.950Z,74.64
2018-01-17T03:56:05.084Z,73.28
2018-01-17T03:58:32.958Z,73.61
2018-01-17T04:01:00.798Z,72.97
2018-01-17T04:03:28.771Z,73.62
2018-01-17T04:05:56.554Z,73.55
2018-01-17T04:08:24.410Z,73.17
2018-01-17T04:10:52.139Z,73.74
2018-01-17T04:13:19.993Z,73.26
2018-01-17T04:15:48.303Z,74.05
2018-01-17T04:18:17.266Z,73.89
2018-01-17T04:20:47.399Z,74.04
2018-01-17T04:23:15.401Z,73.62
2018-01-17T04:25:43.340Z,73.69
2018-01-17T04:28:11.942Z,75.04
2018-01-17T04:30:40.245Z,74.82
2018-01-17T04:33:08.393Z,74.54
2018-01-17T04:35:36.211Z,73.94
2018-01-17T04:38:04.217Z,73.99
2018-01-17T04:40:32.306Z,73.60
2018-01-17T04:43:01.348Z,73.68
2018-01-17T04:45:29.985Z,74.60
2018-01-17T04:47:58.515Z,73.99
2018-01-17T04:50:26.686Z,74.23
2018-01-17T04:52:54.784Z,75.28
2018-01-17T04:55:22.476Z,75.26
2018-01-17T04:57:50.180Z,76.59
2018-01-17T05:00:18.957Z,76.14
2018-01-17T05:02:47.696Z,77.25
2018-01-17T05:05:16.090Z,76.72
2018-01-17T05:07:44.135Z,77.82
2018-01-17T05:10:12.255Z,77.30
2018-01-17T05:12:40.029Z,78.34
2018-01-17T05:15:09.147Z,78.02
2018-01-17T05:17:40.053Z,77.08
2018-01-17T05:20:08.754Z,76.30
2018-01-17T05:22:37.876Z,76.96
2018-01-17T05:25:06.441Z,79.24
2018-01-17T05:27:35.319Z,79.63
2018-01-17T05:30:06.743Z,76.95
2018-01-17T05:32:34.656Z,76.45
2018-01-17T05:35:04.523Z,76.16
2018-01-17T05:37:40.196Z,75.29
2018-01-17T05:40:09.058Z,76.30
2018-01-17T05:42:37.032Z,75.95
2018-01-17T05:45:05.862Z,75.86
2018-01-17T05:47:35.584Z,76.40
2018-01-17T05:50:03.731Z,75.56
2018-01-17T05:52:31.802Z,75.62
2018-01-17T05:55:00.607Z,75.87
2018-01-17T05:57:29.354Z,76.41
2018-01-17T05:59:59.613Z,76.13
2018-01-17T06:02:28.917Z,75.80
2018-01-17T06:04:57.383Z,73.34
2018-01-17T06:07:26.612Z,71.66
2018-01-17T06:09:54.690Z,70.71
2018-01-17T06:12:24.005Z,68.67
2018-01-17T06:14:55.763Z,68.23
2018-01-17T06:17:24.089Z,66.66
2018-01-17T06:19:52.473Z,64.22
2018-01-17T06:22:20.735Z,63.74
2018-01-17T06:24:49.906Z,60.92
2018-01-17T06:27:19.648Z,59.59
2018-01-17T06:29:48.692Z,57.76
2018-01-17T06:32:17.126Z,59.19
2018-01-17T06:34:45.709Z,58.23
2018-01-17T06:37:14.914Z,54.61
2018-01-17T06:39:45.456Z,55.82
2018-01-17T06:42:15.522Z,55.42
2018-01-17T06:44:44.442Z,54.13
2018-01-17T06:47:22.019Z,52.80
2018-01-17T06:49:49.842Z,51.23
2018-01-17T06:52:18.003Z,52.96
2018-01-17T06:57:20.793Z,49.16
2018-01-17T06:59:52.239Z,46.85
2018-01-17T07:02:21.330Z,51.97
2018-01-17T07:04:51.931Z,49.24
2018-01-17T07:07:20.369Z,47.71
2018-01-17T07:09:49.747Z,49.77
2018-01-17T07:12:29.421Z,47.70
2018-01-17T07:17:33.162Z,44.80
2018-01-17T07:20:02.495Z,46.51
2018-01-17T07:22:31.155Z,45.55
2018-01-17T07:27:34.087Z,47.37
2018-01-17T07:30:10.430Z,43.91
2018-01-17T07:32:39.955Z,46.60
2018-01-17T07:35:09.680Z,44.07
2018-01-17T07:37:38.169Z,44.98
2018-01-17T07:40:08.801Z,46.56
2018-01-17T07:46:05.846Z,44.70
2018-01-17T07:48:35.044Z,46.57
2018-01-17T07:51:02.892Z,45.74
2018-01-17T07:53:33.192Z,43.36
2018-01-17T07:56:01.639Z,45.24
2018-01-17T07:58:31.906Z,41.90
2018-01-17T08:01:01.205Z,43.87
2018-01-17T08:03:34.058Z,40.97
2018-01-17T08:06:02.062Z,44.78
2018-01-17T08:08:31.067Z,43.80
2018-01-17T08:10:59.839Z,39.69
2018-01-17T08:13:30.528Z,40.75
2018-01-17T08:15:59.472Z,39.68
2018-01-17T08:18:28.669Z,36.93
2018-01-17T08:21:01.599Z,37.31
2018-01-17T08:23:32.077Z,36.69
2018-01-17T08:26:01.016Z,35.94
2018-01-17T08:28:30.049Z,37.94
2018-01-17T08:30:58.174Z,37.34
2018-01-17T08:33:26.396Z,34.92
2018-01-17T08:35:55.256Z,37.28
2018-01-17T08:38:23.277Z,36.77
2018-01-17T08:40:51.615Z,35.29
2018-01-17T08:43:20.935Z,36.89
2018-01-17T08:50:57.582Z,32.25
2018-01-17T08:53:25.437Z,31.77
2018-01-17T08:55:53.477Z,33.76
2018-01-17T08:58:22.851Z,33.67
2018-01-17T09:00:52.715Z,31.67
2018-01-17T09:03:20.849Z,30.97
2018-01-17T09:05:51.743Z,31.54
2018-01-17T09:08:21.494Z,29.63
2018-01-17T09:10:54.148Z,29.22
2018-01-17T09:13:22.280Z,31.02
2018-01-17T09:15:50.133Z,31.68
2018-01-17T09:18:19.009Z,34.70
2018-01-17T09:20:47.922Z,38.15
2018-01-17T09:23:16.002Z,39.48
2018-01-17T09:25:43.810Z,39.24
2018-01-17T09:28:11.826Z,40.06
2018-01-17T09:30:39.784Z,38.71
2018-01-17T09:33:07.846Z,40.25
2018-01-17T09:35:37.431Z,42.50
2018-01-17T09:38:08.097Z,41.49
2018-01-17T09:40:39.255Z,44.80
2018-01-17T09:43:08.572Z,47.71
2018-01-17T09:45:37.442Z,46.42
2018-01-17T09:48:05.414Z,48.44
2018-01-17T09:50:33.321Z,47.64
2018-01-17T09:53:01.818Z,48.13
2018-01-17T09:55:29.615Z,48.88
2018-01-17T09:57:58.705Z,51.97
2018-01-17T10:00:27.565Z,52.08
2018-01-17T10:02:55.363Z,51.85
2018-01-17T10:05:23.184Z,49.88
2018-01-17T10:07:51.079Z,49.61
2018-01-17T10:10:21.085Z,48.96
2018-01-17T10:12:48.890Z,48.89
2018-01-17T10:15:16.896Z,49.81
2018-01-17T10:17:45.616Z,50.14
2018-01-17T10:20:13.674Z,48.31
2018-01-17T10:22:41.898Z,50.28
2018-01-17T10:25:09.787Z,51.17
2018-01-17T10:27:37.601Z,50.53
2018-01-17T10:30:13.040Z,51.07
2018-01-17T10:32:41.204Z,50.26
2018-01-17T10:35:10.505Z,49.66
2018-01-17T10:37:39.492Z,51.28
2018-01-17T10:40:08.203Z,50.85
2018-01-17T10:42:36.796Z,50.75
2018-01-17T10:45:04.751Z,51.04
2018-01-17T10:47:33.660Z,51.17
2018-01-17T10:50:01.654Z,51.83
2018-01-17T10:52:31.042Z,52.21
2018-01-17T10:55:00.549Z,51.71
2018-01-17T10:57:30.077Z,51.72
2018-01-17T11:00:01.698Z,52.96
2018-01-17T11:05:58.718Z,53.78
2018-01-17T11:08:26.530Z,53.73
2018-01-17T11:10:54.876Z,52.00
2018-01-17T11:13:23.464Z,50.97
2018-01-17T11:15:51.568Z,52.75
2018-01-17T11:18:20.679Z,52.53
2018-01-17T11:20:48.864Z,51.88
2018-01-17T11:23:17.953Z,52.73
2018-01-17T11:25:46.579Z,53.13
2018-01-17T11:28:15.836Z,53.33
2018-01-17T11:30:43.911Z,52.54
2018-01-17T11:33:12.691Z,50.42
2018-01-17T11:35:40.641Z,49.32
2018-01-17T11:38:08.677Z,48.89
2018-01-17T11:40:37.989Z,48.70
2018-01-17T11:43:06.102Z,46.71
2018-01-17T11:45:34.249Z,45.86
2018-01-17T11:48:03.719Z,44.37
2018-01-17T11:50:32.986Z,43.73
2018-01-17T11:53:01.053Z,43.81
2018-01-17T11:55:29.008Z,41.55
2018-01-17T11:57:56.886Z,41.79
2018-01-17T12:00:26.016Z,40.90
2018-01-17T12:02:53.825Z,41.17
2018-01-17T12:05:22.828Z,40.25
2018-01-17T12:07:51.089Z,38.36
2018-01-17T12:10:21.949Z,38.78
2018-01-17T12:12:49.683Z,38.61
2018-01-17T12:15:18.470Z,37.27
2018-01-17T12:17:46.305Z,36.78
2018-01-17T12:20:14.113Z,35.76
2018-01-17T12:22:42.276Z,34.52
2018-01-17T12:25:11.455Z,34.79
2018-01-17T12:27:39.121Z,37.38
2018-01-17T12:30:07.893Z,36.87
2018-01-17T12:32:35.680Z,36.46
2018-01-17T12:35:04.352Z,37.57
2018-01-17T12:37:32.063Z,37.04
2018-01-17T12:39:59.698Z,34.25
2018-01-17T12:42:27.311Z,34.80
2018-01-17T12:44:55.022Z,35.27
2018-01-17T12:47:22.593Z,35.05
2018-01-17T12:49:50.195Z,34.25
2018-01-17T12:52:18.089Z,34.97
2018-01-17T12:54:45.963Z,35.73
2018-01-17T12:57:13.680Z,36.46
2018-01-17T12:59:41.440Z,37.15
2018-01-17T13:02:09.355Z,37.29
2018-01-17T13:04:37.020Z,37.74
2018-01-17T13:07:04.695Z,38.41
2018-01-17T13:09:32.475Z,38.39
2018-01-17T13:12:00.212Z,38.75
2018-01-17T13:14:27.849Z,39.21
2018-01-17T13:16:55.651Z,39.80
2018-01-17T13:19:23.826Z,40.49
2018-01-17T13:21:51.496Z,41.16
2018-01-17T13:24:19.769Z,41.42
2018-01-17T13:26:47.397Z,42.62
2018-01-17T13:29:15.259Z,43.49
2018-01-17T13:31:43.003Z,44.49
2018-01-17T13:34:10.681Z,44.26
2018-01-17T13:36:38.373Z,45.29
2018-01-17T13:39:06.213Z,45.87
2018-01-17T13:41:34.736Z,45.77
2018-01-17T13:44:02.431Z,44.68
2018-01-17T13:46:30.642Z,43.94
2018-01-17T13:48:58.421Z,43.82
2018-01-17T13:51:26.901Z,44.21
2018-01-17T13:53:54.796Z,44.65
2018-01-17T13:56:22.591Z,44.88
2018-01-17T13:58:50.576Z,44.46
2018-01-17T14:01:18.468Z,45.22
2018-01-17T14:03:50.236Z,45.77
2018-01-17T14:06:17.987Z,46.14
2018-01-17T14:08:46.788Z,46.16
2018-01-17T14:11:15.756Z,47.46
2018-01-17T14:13:43.467Z,47.72
2018-01-17T14:16:11.716Z,48.29
2018-01-17T14:18:39.777Z,48.18
2018-01-17T14:21:07.996Z,47.61
2018-01-17T14:23:35.869Z,47.02
2018-01-17T14:26:03.807Z,46.92
2018-01-17T14:28:32.417Z,46.33
2018-01-17T14:31:01.311Z,46.47
2018-01-17T14:33:29.417Z,46.67
2018-01-17T14:35:57.308Z,47.35
2018-01-17T14:38:25.287Z,47.33
2018-01-17T14:40:53.926Z,47.83
2018-01-17T14:43:21.630Z,48.02
2018-01-17T14:45:49.545Z,47.89
2018-01-17T14:48:17.391Z,47.58
2018-01-17T14:50:46.269Z,47.18
2018-01-17T14:53:14.378Z,47.86
2018-01-17T14:55:43.590Z,47.64
2018-01-17T14:58:11.788Z,47.48
2018-01-17T15:00:39.758Z,47.61
2018-01-17T15:03:07.417Z,47.46
2018-01-17T15:05:35.072Z,47.88
2018-01-17T15:08:02.762Z,48.43
2018-01-17T15:10:31.308Z,48.82
2018-01-17T15:12:59.058Z,48.42
2018-01-17T15:15:26.932Z,48.30
2018-01-17T15:17:54.780Z,48.06
2018-01-17T15:20:22.439Z,48.65
2018-01-17T15:22:50.194Z,47.87
2018-01-17T15:25:17.885Z,47.82
2018-01-17T15:27:45.693Z,48.58
2018-01-17T15:30:14.387Z,49.77
2018-01-17T15:32:42.060Z,49.80
2018-01-17T15:35:10.801Z,49.33
2018-01-17T15:37:39.161Z,49.61
2018-01-17T15:40:08.571Z,49.69
2018-01-17T15:42:37.297Z,49.20
2018-01-17T15:45:05.047Z,49.88
2018-01-17T15:47:33.601Z,49.64
2018-01-17T15:50:01.265Z,49.41
2018-01-17T15:55:02.570Z,50.07
2018-01-17T15:57:37.478Z,50.08
2018-01-17T16:00:12.456Z,50.22
2018-01-17T16:02:40.230Z,49.52
2018-01-17T16:05:07.996Z,49.35
2018-01-17T16:07:35.827Z,50.10
2018-01-17T16:10:04.499Z,50.42
2018-01-17T16:12:32.128Z,50.62
2018-01-17T16:14:59.917Z,51.83
2018-01-17T16:17:28.177Z,51.30
2018-01-17T16:19:56.573Z,50.98
2018-01-17T16:22:24.297Z,51.81
2018-01-17T16:24:51.947Z,54.17
2018-01-17T16:27:19.573Z,54.61
2018-01-17T16:29:47.224Z,54.37
2018-01-17T16:32:15.031Z,54.56
2018-01-17T16:34:42.698Z,53.84
2018-01-17T16:37:10.341Z,54.27
2018-01-17T16:39:38.037Z,54.00
2018-01-17T16:42:05.628Z,56.66
2018-01-17T16:44:33.381Z,55.45
2018-01-17T16:47:01.082Z,55.27
2018-01-17T16:49:28.678Z,55.76
2018-01-17T16:51:56.312Z,55.39
2018-01-17T16:54:24.027Z,56.25
2018-01-17T16:56:51.818Z,56.25
2018-01-17T16:59:19.415Z,54.69
2018-01-17T17:01:47.113Z,55.67
2018-01-17T17:04:14.832Z,55.01
2018-01-17T17:06:42.513Z,54.54
2018-01-17T17:09:10.289Z,54.42
2018-01-17T17:11:37.938Z,53.40
2018-01-17T17:14:07.690Z,54.47
2018-01-17T17:16:35.404Z,54.97
2018-01-17T17:19:03.257Z,53.99
2018-01-17T17:21:32.555Z,55.13
2018-01-17T17:24:00.347Z,54.91
2018-01-17T17:26:28.078Z,55.12
2018-01-17T17:28:56.079Z,54.36
2018-01-17T17:31:23.808Z,54.59
2018-01-17T17:33:51.409Z,56.99
2018-01-17T17:36:18.952Z,55.09
2018-01-17T17:38:46.693Z,54.10
2018-01-17T17:41:15.102Z,57.73
2018-01-17T17:43:43.191Z,59.96
2018-01-17T17:46:10.886Z,59.99
2018-01-17T17:48:38.543Z,60.97
2018-01-17T17:51:06.164Z,61.81
2018-01-17T17:53:33.900Z,67.31
2018-01-17T17:56:01.466Z,68.91
2018-01-17T17:58:29.961Z,69.38
2018-01-17T18:00:57.682Z,69.80
2018-01-17T18:03:25.480Z,72.01
2018-01-17T18:05:53.241Z,73.27
2018-01-17T18:08:20.961Z,73.95
2018-01-17T18:10:49.395Z,74.17
2018-01-17T18:13:17.070Z,74.61
2018-01-17T18:15:44.771Z,73.88
2018-01-17T18:18:12.427Z,74.24
2018-01-17T18:20:40.925Z,75.36
2018-01-17T18:23:08.827Z,74.45
2018-01-17T18:25:36.523Z,74.14
2018-01-17T18:28:04.912Z,74.44
2018-01-17T18:30:33.337Z,74.32
2018-01-17T18:33:00.996Z,74.35
2018-01-17T18:35:28.639Z,73.73
2018-01-17T18:37:56.778Z,73.63
2018-01-17T18:40:24.488Z,75.05
2018-01-17T18:42:52.196Z,74.28
2018-01-17T18:45:23.415Z,74.23
2018-01-17T18:47:54.199Z,74.87
2018-01-17T18:50:23.735Z,74.57
2018-01-17T18:52:58.310Z,75.21
2018-01-17T18:55:27.484Z,74.71
2018-01-17T18:57:57.582Z,73.93
2018-01-17T19:00:26.023Z,73.92
2018-01-17T19:02:55.338Z,73.82
2018-01-17T19:08:17.705Z,74.18
2018-01-17T19:10:46.381Z,73.99
2018-01-17T19:13:15.081Z,73.40
2018-01-17T19:15:43.271Z,73.09
2018-01-17T19:18:11.183Z,73.66
2018-01-17T19:20:39.759Z,73.08
2018-01-17T19:23:07.391Z,73.33
2018-01-17T19:25:36.011Z,73.76
2018-01-17T19:28:03.844Z,73.07
2018-01-17T19:30:32.568Z,72.89
2018-01-17T19:33:01.717Z,72.80
2018-01-17T19:35:31.168Z,72.78
2018-01-17T19:37:59.901Z,72.41
2018-01-17T19:40:27.904Z,72.69
2018-01-17T19:42:56.745Z,71.74
2018-01-17T19:45:24.526Z,72.05
2018-01-17T19:47:52.848Z,71.50
2018-01-17T19:50:20.537Z,71.66
2018-01-17T19:52:55.163Z,71.58
2018-01-17T19:55:25.926Z,71.99
2018-01-17T19:57:55.247Z,71.92
2018-01-17T20:00:27.517Z,72.06
2018-01-17T20:02:59.298Z,71.91
2018-01-17T20:05:27.143Z,72.09
2018-01-17T20:07:54.983Z,72.26
2018-01-17T20:10:23.522Z,72.18
2018-01-17T20:12:52.252Z,71.99
2018-01-17T20:15:20.738Z,72.77
2018-01-17T20:17:48.362Z,72.62
2018-01-17T20:20:16.174Z,73.13
2018-01-17T20:22:50.491Z,73.00
2018-01-17T20:25:18.231Z,71.91
2018-01-17T20:27:45.871Z,71.62
2018-01-17T20:30:13.653Z,71.89
2018-01-17T20:32:41.621Z,70.64
2018-01-17T20:35:09.207Z,71.24
2018-01-17T20:37:38.039Z,70.91
2018-01-17T20:40:05.706Z,70.60
2018-01-17T20:42:33.617Z,70.87
2018-01-17T20:45:01.432Z,70.93
2018-01-17T20:47:29.221Z,70.34
2018-01-17T20:49:56.942Z,70.93
2018-01-17T20:52:24.608Z,70.76
2018-01-17T20:54:52.474Z,70.77
2018-01-17T20:57:20.197Z,70.22
2018-01-17T20:59:47.970Z,70.02
2018-01-17T21:02:15.815Z,70.17
2018-01-17T21:04:43.460Z,70.04
2018-01-17T21:07:11.008Z,70.03
2018-01-17T21:09:38.781Z,69.84
2018-01-17T21:12:06.877Z,70.13
2018-01-17T21:14:35.038Z,70.27
2018-01-17T21:17:02.845Z,70.19
2018-01-17T21:19:30.707Z,70.15
2018-01-17T21:21:58.868Z,70.12
2018-01-17T21:24:26.774Z,69.75
2018-01-17T21:26:55.816Z,70.12
2018-01-17T21:29:24.030Z,69.79
2018-01-17T21:31:51.858Z,69.87
2018-01-17T21:34:19.994Z,69.72
2018-01-17T21:36:47.609Z,69.93
2018-01-17T21:39:16.705Z,69.61
2018-01-17T21:41:44.888Z,69.47
2018-01-17T21:44:18.508Z,69.15
2018-01-17T21:46:46.312Z,69.18
2018-01-17T21:49:14.207Z,68.75
2018-01-17T21:51:42.448Z,68.82
2018-01-17T21:54:12.678Z,68.73
2018-01-17T21:56:40.427Z,69.10
2018-01-17T21:59:08.150Z,68.91
2018-01-17T22:01:36.226Z,68.62
2018-01-17T22:04:04.642Z,68.57
2018-01-17T22:06:32.314Z,68.41
2018-01-17T22:09:00.340Z,68.43
2018-01-17T22:11:29.373Z,68.62
2018-01-17T22:13:57.048Z,68.83
2018-01-17T22:16:24.803Z,69.17
2018-01-17T22:18:52.549Z,69.51
2018-01-17T22:21:20.439Z,68.87
2018-01-17T22:23:50.014Z,69.30
2018-01-17T22:26:17.961Z,69.25
2018-01-17T22:28:46.356Z,69.14
2018-01-17T22:31:14.704Z,68.95
2018-01-17T22:33:42.449Z,68.66
2018-01-17T22:36:10.078Z,69.03
2018-01-17T22:38:37.889Z,68.96
2018-01-17T22:41:05.843Z,68.76
2018-01-17T22:43:33.429Z,68.96
2018-01-17T22:46:01.522Z,69.36
2018-01-17T22:48:29.966Z,68.79
2018-01-17T22:50:57.625Z,68.95
2018-01-17T22:53:25.306Z,69.14
2018-01-17T22:55:53.066Z,69.30
2018-01-17T22:58:20.847Z,68.99
2018-01-17T23:00:49.249Z,68.95
2018-01-17T23:03:17.230Z,69.07
2018-01-17T23:05:45.348Z,69.15
2018-01-17T23:08:13.313Z,69.29
2018-01-17T23:10:41.781Z,68.85
2018-01-17T23:13:09.668Z,69.11
2018-01-17T23:15:37.387Z,69.18
2018-01-17T23:18:05.622Z,68.98
2018-01-17T23:20:33.689Z,69.08
2018-01-17T23:23:01.354Z,69.06
2018-01-17T23:25:28.939Z,69.29
2018-01-17T23:27:56.781Z,69.37
2018-01-17T23:30:24.478Z,69.70
2018-01-17T23:32:52.170Z,69.90
2018-01-17T23:35:19.750Z,69.97
2018-01-17T23:37:47.729Z,69.87
2018-01-17T23:40:15.438Z,69.91
2018-01-17T23:42:43.300Z,69.82
2018-01-17T23:45:11.962Z,69.71
2018-01-17T23:47:39.930Z,69.55
2018-01-17T23:50:07.701Z,69.72
2018-01-17T23:52:35.731Z,69.69
2018-01-17T23:55:03.380Z,69.02
2018-01-17T23:57:31.185Z,69.00
2018-01-17T23:59:58.882Z,68.51
